Penistone, United Kingdom
Current Conditions -  °F | °C
As of 4:20 AM on Friday 28 Nov 2014 (Local Time) from EGNM Reporting Station
Moderate Fog Moderate Fog  
Wind Chill: 40°   Ceiling: Unl
Heat Index: 43°   Visibility: 0.09mi
Dew Point: 43°   Wind: 5mph
Humidity: 100%   Direction: 50°NE
Pressure: 29.65"   Gusts: NA
Location:  53.53°N, 1.63°W
Report Text: EGNM 280420Z 05004KT 020V100 0150 FG VV/// 06/06 Q1004
Loading
Personal Weather Stations






























Interactive Weather Map New forecast layout! Learn more

10-Day Weather Forecast

Advertisements
Track Severe Weather on mobile